Time;durP1;ratioP1;P1;durP2;ratioP2;P2;SDS_P1;SDS_P2;PMS_P1;PMS_P2;Temp;Humidity;BMP_temperature;BMP_pressure;BME280_temperature;BME280_humidity;BME280_pressure;Samples;Min_cycle;Max_cycle;Signal;HPM_P1;HPM_P2
2023/04/08 00:00:14;;;;;;;11.35;8.73;;;6.00;99.90;;;;;;5051426;28;20048;-68
2023/04/08 00:02:40;;;;;;;15.63;9.30;;;5.80;99.90;;;;;;5033418;28;20029;-68
2023/04/08 00:05:06;;;;;;;14.20;8.85;;;5.80;99.90;;;;;;5051422;28;20091;-68
2023/04/08 00:07:31;;;;;;;12.10;9.20;;;5.80;99.90;;;;;;5051519;28;20041;-69
2023/04/08 00:09:57;;;;;;;16.85;10.20;;;5.70;99.90;;;;;;5051470;28;20045;-69
2023/04/08 00:12:22;;;;;;;15.90;9.38;;;5.70;99.90;;;;;;5051303;28;20452;-69
2023/04/08 00:14:48;;;;;;;14.15;9.35;;;5.70;99.90;;;;;;5033612;28;20045;-70
2023/04/08 00:17:13;;;;;;;13.05;9.77;;;5.70;99.90;;;;;;5051022;28;20095;-69
2023/04/08 00:19:39;;;;;;;13.80;9.95;;;5.70;99.90;;;;;;5051513;28;20048;-69
2023/04/08 00:22:05;;;;;;;14.70;9.05;;;5.60;99.90;;;;;;5033483;28;20056;-69
2023/04/08 00:24:31;;;;;;;14.25;10.10;;;5.60;99.90;;;;;;5051143;28;20041;-69
2023/04/08 00:26:57;;;;;;;13.95;9.48;;;5.60;99.90;;;;;;5051115;28;20519;-70
2023/04/08 00:29:22;;;;;;;15.35;10.05;;;5.60;99.90;;;;;;5051270;28;20443;-69
2023/04/08 00:31:48;;;;;;;17.13;11.32;;;5.60;99.90;;;;;;5050946;28;20553;-68
2023/04/08 00:34:13;;;;;;;14.55;9.32;;;5.60;99.90;;;;;;5051234;28;20109;-67
2023/04/08 00:36:39;;;;;;;18.08;9.82;;;5.50;99.90;;;;;;5051142;28;20098;-67
2023/04/08 00:39:05;;;;;;;15.90;9.88;;;5.50;99.90;;;;;;5051236;28;20039;-67
2023/04/08 00:41:33;;;;;;;16.98;11.45;;;5.50;99.90;;;;;;5051683;28;20040;-68
2023/04/08 00:43:58;;;;;;;14.95;9.90;;;5.40;99.90;;;;;;5054778;28;20043;-68
2023/04/08 00:46:25;;;;;;;15.85;10.30;;;5.40;99.90;;;;;;5054467;28;20411;-68
2023/04/08 00:48:51;;;;;;;13.80;9.52;;;5.40;99.90;;;;;;5055028;28;20044;-68
2023/04/08 00:51:17;;;;;;;15.57;9.75;;;5.40;99.90;;;;;;5054831;28;20037;-68
2023/04/08 00:53:43;;;;;;;15.63;10.13;;;5.40;99.90;;;;;;5036739;28;20033;-68
2023/04/08 00:56:09;;;;;;;16.15;10.30;;;5.40;99.90;;;;;;5036826;28;20111;-68
2023/04/08 00:58:35;;;;;;;12.43;9.45;;;5.40;99.90;;;;;;5054601;28;20080;-68
2023/04/08 01:01:09;;;;;;;13.93;10.23;;;5.30;99.90;;;;;;5054450;28;20080;-68
2023/04/08 01:04:00;;;;;;;14.32;10.40;;;5.30;99.90;;;;;;5054559;28;20071;-68
2023/04/08 01:06:57;;;;;;;14.27;10.07;;;5.40;99.90;;;;;;5054283;28;20412;-68
2023/04/08 01:09:29;;;;;;;18.52;11.25;;;5.30;99.90;;;;;;5036407;28;20051;-68
2023/04/08 01:11:57;;;;;;;17.58;10.73;;;5.20;99.90;;;;;;5054208;28;20519;-69
2023/04/08 01:14:27;;;;;;;17.83;10.65;;;5.30;99.90;;;;;;5054188;28;20043;-70
2023/04/08 01:16:55;;;;;;;15.20;10.65;;;5.20;99.90;;;;;;5054175;28;20037;-69
2023/04/08 01:19:31;;;;;;;15.30;10.60;;;5.20;99.90;;;;;;5054283;28;20033;-69
2023/04/08 01:22:14;;;;;;;15.38;10.05;;;5.20;99.90;;;;;;5053979;28;20047;-69
2023/04/08 01:24:43;;;;;;;21.50;11.77;;;5.20;99.90;;;;;;5054156;28;20056;-69
2023/04/08 01:27:10;;;;;;;21.42;12.63;;;5.20;99.90;;;;;;5053868;28;20408;-69
2023/04/08 01:29:36;;;;;;;23.48;13.93;;;5.10;99.90;;;;;;5054000;28;20073;-70
2023/04/08 01:32:03;;;;;;;19.23;11.73;;;5.10;99.90;;;;;;5053866;28;20041;-69
2023/04/08 01:34:30;;;;;;;18.77;12.30;;;5.00;99.90;;;;;;5053613;28;20412;-70
2023/04/08 01:36:57;;;;;;;19.65;12.75;;;5.00;99.90;;;;;;5035791;28;20044;-68
2023/04/08 01:39:24;;;;;;;20.92;13.95;;;5.00;99.90;;;;;;5035967;28;20420;-69
2023/04/08 01:41:52;;;;;;;22.02;12.95;;;5.00;99.90;;;;;;5053650;28;20103;-68
2023/04/08 01:44:19;;;;;;;18.42;12.07;;;4.90;99.90;;;;;;5053593;28;20045;-68
2023/04/08 01:46:45;;;;;;;19.60;12.50;;;4.90;99.90;;;;;;5053389;28;20037;-68
2023/04/08 01:49:11;;;;;;;19.65;13.00;;;4.90;99.90;;;;;;5053816;28;20168;-68
2023/04/08 01:51:38;;;;;;;23.27;14.20;;;4.90;99.90;;;;;;5053713;28;20083;-68
2023/04/08 01:54:04;;;;;;;20.42;14.27;;;5.00;99.90;;;;;;5052792;28;20041;-68
2023/04/08 01:56:35;;;;;;;20.38;13.13;;;4.90;99.90;;;;;;5053200;28;20033;-68
2023/04/08 01:59:02;;;;;;;22.95;13.82;;;4.80;99.90;;;;;;5053444;28;20095;-68
2023/04/08 02:01:29;;;;;;;23.75;13.95;;;4.90;99.90;;;;;;5053168;28;20051;-68
2023/04/08 02:03:56;;;;;;;24.63;14.65;;;4.90;99.90;;;;;;5053278;28;20501;-68
2023/04/08 02:06:22;;;;;;;22.73;14.13;;;4.90;99.90;;;;;;5053221;28;20040;-68
2023/04/08 02:08:48;;;;;;;22.05;13.68;;;5.00;99.90;;;;;;5053394;28;20083;-68
2023/04/08 02:11:14;;;;;;;19.52;12.15;;;4.90;99.90;;;;;;5053320;28;20045;-68
2023/04/08 02:13:40;;;;;;;22.40;14.45;;;4.90;99.90;;;;;;5053073;28;20523;-68
2023/04/08 02:16:14;;;;;;;21.67;13.35;;;4.90;99.90;;;;;;5052784;28;20094;-68
2023/04/08 02:18:46;;;;;;;22.48;14.73;;;4.90;99.90;;;;;;5053092;28;20040;-68
2023/04/08 02:21:14;;;;;;;21.70;14.32;;;4.80;99.90;;;;;;5053167;28;20041;-68
2023/04/08 02:23:44;;;;;;;27.95;15.15;;;4.90;99.90;;;;;;5035068;28;20055;-68
2023/04/08 02:26:15;;;;;;;25.15;15.32;;;4.90;99.90;;;;;;5052615;28;20045;-68
2023/04/08 02:28:41;;;;;;;23.02;14.20;;;4.80;99.90;;;;;;5034928;28;20504;-68
2023/04/08 02:31:12;;;;;;;23.27;14.00;;;4.90;99.90;;;;;;5052937;28;20037;-68
2023/04/08 02:33:38;;;;;;;23.50;14.82;;;4.90;99.90;;;;;;5052572;28;20561;-68
2023/04/08 02:36:05;;;;;;;20.20;13.80;;;4.90;99.90;;;;;;5052593;28;20037;-68
2023/04/08 02:38:31;;;;;;;23.25;14.70;;;4.90;99.90;;;;;;5052728;28;20084;-68
2023/04/08 02:40:56;;;;;;;25.65;14.45;;;4.90;99.90;;;;;;5052624;28;20041;-68
2023/04/08 02:43:30;;;;;;;23.27;15.32;;;4.90;99.90;;;;;;5052408;28;20037;-68
2023/04/08 02:45:56;;;;;;;;;;;4.90;99.90;;;;;;5052711;28;20494;-68
2023/04/08 02:48:21;;;;;;;23.58;14.70;;;4.90;99.90;;;;;;5034590;28;20051;-68
2023/04/08 02:50:47;;;;;;;28.50;16.52;;;4.90;99.90;;;;;;5052506;28;20037;-68
2023/04/08 02:53:12;;;;;;;24.88;15.45;;;4.90;99.90;;;;;;5051890;28;20037;-68
2023/04/08 02:55:38;;;;;;;26.23;15.60;;;4.80;99.90;;;;;;5052052;28;20501;-68
2023/04/08 02:58:04;;;;;;;25.83;15.68;;;4.80;99.90;;;;;;5052259;28;20599;-68
2023/04/08 03:00:30;;;;;;;25.48;15.98;;;4.80;99.90;;;;;;5034405;28;20132;-68
2023/04/08 03:02:55;;;;;;;26.05;15.73;;;4.70;99.90;;;;;;5034489;28;20386;-68
2023/04/08 03:05:21;;;;;;;20.90;14.55;;;4.80;99.90;;;;;;5051946;28;20045;-68
2023/04/08 03:07:47;;;;;;;26.20;16.05;;;4.80;99.90;;;;;;5052136;28;20037;-68
2023/04/08 03:10:12;;;;;;;24.63;15.70;;;4.70;99.90;;;;;;5051987;28;20071;-68
2023/04/08 03:12:38;;;;;;;27.50;15.40;;;4.80;99.90;;;;;;5051941;28;20103;-68
2023/04/08 03:15:05;;;;;;;24.83;14.57;;;4.80;99.90;;;;;;5051955;28;20496;-68
2023/04/08 03:17:33;;;;;;;29.27;15.23;;;4.80;99.90;;;;;;5051958;28;20095;-68
2023/04/08 03:19:59;;;;;;;27.42;15.68;;;4.80;99.90;;;;;;5052033;28;20080;-68
2023/04/08 03:22:25;;;;;;;25.05;15.38;;;4.80;99.90;;;;;;5051895;28;20044;-68
2023/04/08 03:24:50;;;;;;;22.65;14.00;;;4.70;99.90;;;;;;5051661;28;20408;-68
2023/04/08 03:27:16;;;;;;;25.95;15.60;;;4.70;99.90;;;;;;5051883;28;20174;-68
2023/04/08 03:29:41;;;;;;;21.80;15.23;;;4.70;99.90;;;;;;5051866;28;20428;-68
2023/04/08 03:32:07;;;;;;;24.48;15.75;;;4.70;99.90;;;;;;5051822;28;20052;-68
2023/04/08 03:34:34;;;;;;;24.42;15.52;;;4.60;99.90;;;;;;5051708;28;20041;-68
2023/04/08 03:37:00;;;;;;;27.17;14.63;;;4.70;99.90;;;;;;5033783;28;20074;-68
2023/04/08 03:39:25;;;;;;;26.23;16.55;;;4.70;99.90;;;;;;5051679;28;20090;-68
2023/04/08 03:41:51;;;;;;;26.15;14.82;;;4.70;99.90;;;;;;5051656;28;20044;-68
2023/04/08 03:44:16;;;;;;;25.77;15.00;;;4.70;99.90;;;;;;5051708;28;20052;-68
2023/04/08 03:46:42;;;;;;;26.15;14.80;;;4.60;99.90;;;;;;5051430;28;20041;-68
2023/04/08 03:49:08;;;;;;;25.50;14.77;;;4.50;99.90;;;;;;5051665;28;20033;-68
2023/04/08 03:51:33;;;;;;;24.67;15.90;;;4.60;99.90;;;;;;5051558;28;20036;-68
2023/04/08 03:53:59;;;;;;;24.90;16.40;;;4.60;99.90;;;;;;5051320;28;20082;-68
2023/04/08 03:56:25;;;;;;;28.13;15.90;;;4.60;99.90;;;;;;5051537;28;20099;-68
2023/04/08 03:58:50;;;;;;;30.25;17.70;;;4.60;99.90;;;;;;5051633;28;20048;-68
2023/04/08 04:01:16;;;;;;;30.25;17.45;;;4.60;99.90;;;;;;5051485;28;20033;-68
2023/04/08 04:03:41;;;;;;;23.90;14.80;;;4.60;99.90;;;;;;5051486;28;20472;-68
2023/04/08 04:06:07;;;;;;;26.15;16.10;;;4.60;99.90;;;;;;5051062;28;20048;-68
2023/04/08 04:08:32;;;;;;;27.17;16.60;;;4.60;99.90;;;;;;5033433;28;20041;-68
2023/04/08 04:10:59;;;;;;;28.40;17.27;;;4.60;99.90;;;;;;5051619;28;20042;-68
2023/04/08 04:13:24;;;;;;;33.28;16.63;;;4.50;99.90;;;;;;5051250;28;20488;-68
2023/04/08 04:15:50;;;;;;;28.75;17.35;;;4.50;99.90;;;;;;5051207;28;20033;-68
2023/04/08 04:18:15;;;;;;;29.60;16.85;;;4.50;99.90;;;;;;5037380;28;20071;-68
2023/04/08 04:20:42;;;;;;;27.33;16.15;;;4.40;99.90;;;;;;5055341;28;20039;-68
2023/04/08 04:23:08;;;;;;;28.67;17.00;;;4.50;99.90;;;;;;5055009;28;20045;-68
2023/04/08 04:25:33;;;;;;;27.73;15.90;;;4.50;99.90;;;;;;5054800;28;20066;-68
2023/04/08 04:28:00;;;;;;;28.67;17.17;;;4.50;99.90;;;;;;5055171;28;20072;-68
2023/04/08 04:30:26;;;;;;;33.00;17.92;;;4.50;99.90;;;;;;5055153;28;20119;-68
2023/04/08 04:32:51;;;;;;;29.20;17.98;;;4.50;99.90;;;;;;5055054;28;20120;-68
2023/04/08 04:35:17;;;;;;;26.83;16.13;;;4.50;99.90;;;;;;5054845;28;20439;-68
2023/04/08 04:37:42;;;;;;;28.08;16.70;;;4.50;99.90;;;;;;5054901;28;20500;-68
2023/04/08 04:40:08;;;;;;;28.15;16.42;;;4.50;99.90;;;;;;5055043;28;20112;-68
2023/04/08 04:42:33;;;;;;;29.95;18.88;;;4.50;99.90;;;;;;5054811;28;20041;-68
2023/04/08 04:44:59;;;;;;;28.73;17.05;;;4.40;99.90;;;;;;5054640;28;20459;-67
2023/04/08 04:47:25;;;;;;;28.67;17.90;;;4.40;99.90;;;;;;5054682;28;20037;-68
2023/04/08 04:49:51;;;;;;;33.58;19.88;;;4.30;99.90;;;;;;5054671;28;20128;-67
2023/04/08 04:52:16;;;;;;;33.15;17.92;;;4.30;99.90;;;;;;5054491;28;20036;-67
2023/04/08 04:54:42;;;;;;;32.58;19.70;;;4.30;99.90;;;;;;5054572;28;20041;-67
2023/04/08 04:57:09;;;;;;;34.35;19.75;;;4.30;99.90;;;;;;5054424;28;20040;-68
2023/04/08 04:59:35;;;;;;;33.47;19.88;;;4.30;99.90;;;;;;5036597;28;20041;-68
2023/04/08 05:02:01;;;;;;;30.08;19.30;;;4.40;99.90;;;;;;5036806;28;20045;-67
2023/04/08 05:04:26;;;;;;;31.48;17.63;;;4.40;99.90;;;;;;5036425;28;20044;-67
2023/04/08 05:06:52;;;;;;;29.13;17.48;;;4.40;99.90;;;;;;5054021;28;20041;-67
2023/04/08 05:09:18;;;;;;;32.83;17.52;;;4.40;99.90;;;;;;5054279;28;20043;-67
2023/04/08 05:11:43;;;;;;;30.30;17.50;;;4.40;99.90;;;;;;5054382;28;20095;-67
2023/04/08 05:14:09;;;;;;;33.17;18.42;;;4.40;99.90;;;;;;5054262;28;20073;-68
2023/04/08 05:16:34;;;;;;;31.30;17.58;;;4.30;99.90;;;;;;5054075;28;20106;-67
2023/04/08 05:19:00;;;;;;;26.90;16.92;;;4.30;99.90;;;;;;5054278;28;20463;-67
2023/04/08 05:21:26;;;;;;;29.85;16.85;;;4.30;99.90;;;;;;5054046;28;20044;-67
2023/04/08 05:23:53;;;;;;;27.73;16.73;;;4.30;99.90;;;;;;5036463;28;20120;-67
2023/04/08 05:26:22;;;;;;;32.55;18.40;;;4.40;99.90;;;;;;5053860;28;20060;-67
2023/04/08 05:28:48;;;;;;;31.23;17.70;;;4.40;99.90;;;;;;5052902;28;20051;-67
2023/04/08 05:31:18;;;;;;;30.17;18.17;;;4.50;99.90;;;;;;5053946;28;20029;-68
2023/04/08 05:33:44;;;;;;;31.77;18.02;;;4.50;99.90;;;;;;5053862;28;20037;-67
2023/04/08 05:36:10;;;;;;;38.67;21.73;;;4.60;99.90;;;;;;5053568;28;20160;-67
2023/04/08 05:38:36;;;;;;;41.08;21.70;;;4.70;99.90;;;;;;5053945;28;20132;-67
2023/04/08 05:41:02;;;;;;;38.50;21.17;;;4.80;99.90;;;;;;5053916;28;20527;-67
2023/04/08 05:43:28;;;;;;;39.72;21.65;;;4.80;99.90;;;;;;5053523;28;20421;-67
2023/04/08 05:45:54;;;;;;;38.25;20.48;;;4.90;99.90;;;;;;5053428;28;20404;-67
2023/04/08 05:48:20;;;;;;;42.22;24.35;;;5.00;99.90;;;;;;5053585;28;20033;-67
2023/04/08 05:50:47;;;;;;;38.58;21.63;;;5.10;99.90;;;;;;5053592;28;20033;-67
2023/04/08 05:53:13;;;;;;;36.53;21.98;;;5.20;99.90;;;;;;5053427;28;20044;-67
2023/04/08 05:55:39;;;;;;;38.75;20.95;;;5.30;99.90;;;;;;5053342;28;20041;-67
2023/04/08 05:58:05;;;;;;;37.10;22.02;;;5.30;99.90;;;;;;5053513;28;20052;-67
2023/04/08 06:00:31;;;;;;;32.40;19.83;;;5.40;99.90;;;;;;5053393;28;20037;-67
2023/04/08 06:02:56;;;;;;;32.88;20.08;;;5.50;99.90;;;;;;5053240;28;20037;-68
2023/04/08 06:05:22;;;;;;;36.47;20.42;;;5.50;99.90;;;;;;5053237;28;20033;-68
2023/04/08 06:07:47;;;;;;;34.88;19.58;;;5.50;99.90;;;;;;5053162;28;20055;-68
2023/04/08 06:10:13;;;;;;;35.00;19.00;;;5.60;99.90;;;;;;5053390;28;20044;-68
2023/04/08 06:12:38;;;;;;;37.58;21.42;;;5.60;99.90;;;;;;5053203;28;20116;-68
2023/04/08 06:15:08;;;;;;;33.55;20.20;;;5.70;99.90;;;;;;5052950;28;20078;-68
2023/04/08 06:17:37;;;;;;;33.20;20.33;;;5.80;99.90;;;;;;5053056;28;20037;-68
2023/04/08 06:20:04;;;;;;;31.35;20.00;;;5.80;99.90;;;;;;5052992;28;20493;-68
2023/04/08 06:22:30;;;;;;;33.03;18.95;;;5.90;99.90;;;;;;5053003;28;20107;-68
2023/04/08 06:24:55;;;;;;;36.35;20.38;;;5.90;99.90;;;;;;5052878;28;20116;-68
2023/04/08 06:27:21;;;;;;;30.05;18.20;;;5.90;99.90;;;;;;5052823;28;20049;-67
2023/04/08 06:29:47;;;;;;;31.58;18.10;;;6.00;99.90;;;;;;5052890;28;20508;-67
2023/04/08 06:32:13;;;;;;;31.67;20.60;;;6.10;99.90;;;;;;5034760;28;20041;-67
2023/04/08 06:34:39;;;;;;;31.52;18.98;;;6.10;99.90;;;;;;5052894;28;20037;-68
2023/04/08 06:37:05;;;;;;;30.20;17.77;;;6.20;99.90;;;;;;5052636;28;20116;-67
2023/04/08 06:39:31;;;;;;;30.30;18.90;;;6.30;99.90;;;;;;5034518;28;20556;-67
2023/04/08 06:41:57;;;;;;;30.63;18.88;;;6.40;99.90;;;;;;5051794;28;20179;-67
2023/04/08 06:44:23;;;;;;;28.55;18.70;;;6.40;99.90;;;;;;5052213;28;20041;-67
2023/04/08 06:46:49;;;;;;;30.10;19.42;;;6.50;99.90;;;;;;5052309;28;20373;-69
2023/04/08 06:49:14;;;;;;;32.40;19.30;;;6.60;99.90;;;;;;5052700;28;20066;-68
2023/04/08 06:51:40;;;;;;;26.42;17.15;;;6.60;99.90;;;;;;5052569;28;20041;-68
2023/04/08 06:54:06;;;;;;;27.65;17.27;;;6.60;99.90;;;;;;5052385;28;20052;-68
2023/04/08 06:56:31;;;;;;;26.88;17.75;;;6.60;99.90;;;;;;5052197;28;20051;-68
2023/04/08 06:58:57;;;;;;;28.13;17.23;;;6.70;99.90;;;;;;5048066;28;20045;-68
2023/04/08 07:01:23;;;;;;;27.55;16.58;;;6.70;99.90;;;;;;5051805;28;21364;-68
2023/04/08 07:03:49;;;;;;;27.33;17.88;;;6.80;99.90;;;;;;5034087;28;20049;-68
2023/04/08 07:06:15;;;;;;;29.23;16.83;;;6.90;99.90;;;;;;5033704;28;20048;-68
2023/04/08 07:08:41;;;;;;;32.95;19.05;;;6.90;99.90;;;;;;5043707;28;20036;-68
2023/04/08 07:11:07;;;;;;;31.30;19.52;;;6.90;99.90;;;;;;5051792;28;20086;-69
2023/04/08 07:13:32;;;;;;;28.02;17.60;;;7.10;99.90;;;;;;5051773;28;20044;-69
2023/04/08 07:15:58;;;;;;;37.13;20.58;;;7.20;99.90;;;;;;5028003;28;20120;-69
2023/04/08 07:18:25;;;;;;;31.45;19.52;;;7.30;99.90;;;;;;5051426;28;20048;-68
2023/04/08 07:20:52;;;;;;;26.75;15.57;;;7.30;99.90;;;;;;5051356;28;20041;-69
2023/04/08 07:23:18;;;;;;;24.10;17.30;;;7.40;99.90;;;;;;5051562;28;20048;-69
2023/04/08 07:25:44;;;;;;;24.95;16.00;;;7.50;99.90;;;;;;5036525;28;20047;-68
2023/04/08 07:28:10;;;;;;;27.38;16.70;;;7.40;99.90;;;;;;5036348;28;20519;-69
2023/04/08 07:30:35;;;;;;;30.88;17.13;;;7.40;99.90;;;;;;5051494;28;20048;-68
2023/04/08 07:33:01;;;;;;;23.45;15.80;;;7.30;99.90;;;;;;5051783;28;20036;-68
2023/04/08 07:35:27;;;;;;;27.83;17.77;;;7.30;99.90;;;;;;5051582;28;20037;-69
2023/04/08 07:37:53;;;;;;;25.67;17.27;;;7.40;99.90;;;;;;5033779;28;20045;-69
2023/04/08 07:40:20;;;;;;;27.10;18.27;;;7.50;99.90;;;;;;5051795;28;20102;-69
2023/04/08 07:42:46;;;;;;;25.67;16.58;;;7.60;99.90;;;;;;5051561;28;20119;-68
2023/04/08 07:45:11;;;;;;;25.05;16.23;;;7.70;99.90;;;;;;5051216;28;20147;-68
2023/04/08 07:47:37;;;;;;;25.35;15.73;;;7.70;99.90;;;;;;5051472;28;20047;-68
2023/04/08 07:50:03;;;;;;;25.33;15.43;;;7.80;99.90;;;;;;5051309;28;20037;-68
2023/04/08 07:52:32;;;;;;;21.33;14.75;;;7.80;99.90;;;;;;5032969;28;20041;-68
2023/04/08 07:54:58;;;;;;;25.23;15.57;;;7.80;99.90;;;;;;5051249;28;20419;-68
2023/04/08 07:57:25;;;;;;;23.10;16.48;;;7.90;99.90;;;;;;5051527;28;20146;-68
2023/04/08 07:59:50;;;;;;;25.73;16.08;;;8.00;99.90;;;;;;5051386;28;20084;-68
2023/04/08 08:02:16;;;;;;;26.40;17.30;;;8.10;99.90;;;;;;5051548;28;20064;-69
2023/04/08 08:04:41;;;;;;;26.58;18.20;;;8.20;99.90;;;;;;5051421;28;20041;-68
2023/04/08 08:07:07;;;;;;;28.92;19.17;;;8.30;99.90;;;;;;5051192;28;20098;-68
2023/04/08 08:09:32;;;;;;;27.10;17.15;;;8.40;99.90;;;;;;5051379;28;20098;-69
2023/04/08 08:11:58;;;;;;;28.08;18.48;;;8.40;99.90;;;;;;5051206;28;20041;-70
2023/04/08 08:14:25;;;;;;;27.08;16.83;;;8.40;99.90;;;;;;5050754;28;20041;-69
2023/04/08 08:16:52;;;;;;;29.33;18.17;;;8.40;99.90;;;;;;5050982;28;20045;-69
2023/04/08 08:19:21;;;;;;;20.90;14.25;;;8.20;99.90;;;;;;5051385;28;20090;-69
2023/04/08 08:21:47;;;;;;;24.00;14.90;;;8.30;99.90;;;;;;5033216;28;20129;-69
2023/04/08 08:24:13;;;;;;;23.67;16.00;;;8.30;99.90;;;;;;5051141;28;20044;-69
2023/04/08 08:26:38;;;;;;;24.95;16.02;;;8.20;99.90;;;;;;5050921;28;20048;-69
2023/04/08 08:29:07;;;;;;;22.35;15.63;;;8.20;99.90;;;;;;5051017;28;20040;-69
2023/04/08 08:31:33;;;;;;;22.75;15.32;;;8.10;99.90;;;;;;5051294;28;20052;-69
2023/04/08 08:33:58;;;;;;;22.00;14.98;;;8.10;99.90;;;;;;5050946;28;20033;-69
2023/04/08 08:36:24;;;;;;;20.38;14.13;;;8.10;99.90;;;;;;5051035;28;20045;-69
2023/04/08 08:38:50;;;;;;;21.92;14.10;;;8.00;99.90;;;;;;5051164;28;20520;-69
2023/04/08 08:41:16;;;;;;;22.30;13.88;;;7.90;99.90;;;;;;5050832;28;20045;-69
2023/04/08 08:43:43;;;;;;;23.13;14.35;;;8.00;99.90;;;;;;5050517;28;20106;-69
2023/04/08 08:46:10;;;;;;;25.10;15.90;;;8.10;99.90;;;;;;5050537;28;20048;-69
2023/04/08 08:48:37;;;;;;;25.20;16.60;;;8.10;99.90;;;;;;5051028;28;20116;-69
2023/04/08 08:51:08;;;;;;;21.02;14.48;;;7.90;99.90;;;;;;5033331;28;20045;-69
2023/04/08 08:53:34;;;;;;;20.73;14.10;;;7.80;99.90;;;;;;5050646;28;20051;-69
2023/04/08 08:55:59;;;;;;;23.13;13.88;;;7.50;99.90;;;;;;5050196;28;20120;-69
2023/04/08 08:58:26;;;;;;;22.15;13.52;;;7.50;99.90;;;;;;5050887;28;20044;-69
2023/04/08 09:00:52;;;;;;;23.67;14.45;;;7.50;99.90;;;;;;5050704;28;20029;-69
2023/04/08 09:03:22;;;;;;;22.60;15.73;;;7.30;99.90;;;;;;5052018;28;20454;-69
2023/04/08 09:05:52;;;;;;;23.85;13.90;;;7.40;99.90;;;;;;5053777;28;20037;-69
2023/04/08 09:08:30;;;;;;;21.52;13.75;;;7.30;99.90;;;;;;5051750;28;20049;-69
2023/04/08 09:11:16;;;;;;;22.23;14.38;;;7.40;99.90;;;;;;5054497;28;20040;-70
2023/04/08 09:13:43;;;;;;;18.17;12.80;;;7.50;99.90;;;;;;5054383;28;20100;-69
2023/04/08 09:16:11;;;;;;;17.92;11.70;;;7.50;99.90;;;;;;5053979;28;20041;-70
2023/04/08 09:18:37;;;;;;;21.73;13.32;;;7.60;99.90;;;;;;5054208;28;20131;-70
2023/04/08 09:21:04;;;;;;;21.73;12.93;;;7.60;99.90;;;;;;5053414;28;20058;-70
2023/04/08 09:23:48;;;;;;;23.58;14.68;;;7.70;99.90;;;;;;5054267;28;20048;-70
2023/04/08 09:26:15;;;;;;;21.90;14.57;;;7.70;99.90;;;;;;5036104;28;20056;-69
2023/04/08 09:28:42;;;;;;;24.60;15.18;;;7.80;99.90;;;;;;5054016;28;20519;-69
2023/04/08 09:31:22;;;;;;;20.95;13.60;;;7.80;99.90;;;;;;5053833;28;20037;-70
2023/04/08 09:33:54;;;;;;;17.60;11.82;;;8.00;99.90;;;;;;5019416;28;20512;-70
2023/04/08 09:36:19;;;;;;;17.08;11.43;;;8.10;99.90;;;;;;5053737;28;20041;-70
2023/04/08 09:38:46;;;;;;;16.77;11.23;;;8.00;99.90;;;;;;5053967;28;20511;-70
2023/04/08 09:41:17;;;;;;;15.95;10.65;;;8.10;99.90;;;;;;5036124;28;20052;-70
2023/04/08 09:43:48;;;;;;;15.90;11.27;;;8.10;99.90;;;;;;5035872;28;20041;-69
2023/04/08 09:46:17;;;;;;;16.23;10.25;;;8.20;99.90;;;;;;5053281;28;20048;-70
2023/04/08 09:48:53;;;;;;;15.60;10.35;;;8.30;99.90;;;;;;5035711;28;20033;-70
2023/04/08 09:51:22;;;;;;;17.23;11.95;;;8.30;99.90;;;;;;5053766;28;20408;-70
2023/04/08 09:53:59;;;;;;;18.90;11.20;;;8.30;99.90;;;;;;5053521;28;20041;-70
2023/04/08 09:56:35;;;;;;;19.70;10.30;;;8.30;99.90;;;;;;5053226;28;20048;-70
2023/04/08 09:59:10;;;;;;;17.75;11.30;;;8.40;99.90;;;;;;5053606;28;20120;-69
2023/04/08 10:01:41;;;;;;;19.17;10.85;;;8.40;99.90;;;;;;5034684;28;20116;-70
2023/04/08 10:04:15;;;;;;;18.40;10.90;;;8.40;99.90;;;;;;5053159;28;20045;-70
2023/04/08 10:06:40;;;;;;;;;;;8.50;99.90;;;;;;5035722;28;20127;-70
2023/04/08 10:09:07;;;;;;;16.73;9.95;;;8.50;99.90;;;;;;5035675;28;20007;-70
2023/04/08 10:11:33;;;;;;;21.15;10.30;;;8.60;99.90;;;;;;5035389;28;20033;-70
2023/04/08 10:13:59;;;;;;;14.88;10.00;;;8.60;99.90;;;;;;5052485;28;20500;-70
2023/04/08 10:16:26;;;;;;;14.57;10.13;;;8.70;99.90;;;;;;5035005;28;20123;-70
2023/04/08 10:18:56;;;;;;;17.58;11.20;;;8.80;99.90;;;;;;5053141;28;20102;-70
2023/04/08 10:21:51;;;;;;;17.88;11.48;;;8.80;99.90;;;;;;5035082;28;20041;-70
2023/04/08 10:24:17;;;;;;;16.83;10.15;;;8.90;99.90;;;;;;5021547;28;20060;-70
2023/04/08 10:26:44;;;;;;;15.52;10.32;;;8.90;99.90;;;;;;5052691;28;20051;-70
2023/04/08 10:29:27;;;;;;;18.42;11.57;;;9.00;99.90;;;;;;5052806;28;20033;-70
2023/04/08 10:31:53;;;;;;;15.70;10.55;;;9.10;99.90;;;;;;5052704;28;20029;-70
2023/04/08 10:34:23;;;;;;;18.60;12.20;;;9.10;99.90;;;;;;5035150;28;20045;-70
2023/04/08 10:36:49;;;;;;;19.48;11.30;;;9.10;99.90;;;;;;5052702;28;20047;-70
2023/04/08 10:39:15;;;;;;;20.88;12.30;;;9.20;99.90;;;;;;5052820;28;20570;-70
2023/04/08 10:41:50;;;;;;;19.52;12.63;;;9.20;99.90;;;;;;5034637;28;20051;-71
2023/04/08 10:44:21;;;;;;;20.45;14.05;;;9.20;99.90;;;;;;5034681;28;20047;-71
2023/04/08 10:46:48;;;;;;;24.48;14.75;;;9.30;99.90;;;;;;5052240;28;20562;-71
2023/04/08 10:49:14;;;;;;;22.27;15.30;;;9.30;99.90;;;;;;5052305;28;20072;-71
2023/04/08 10:51:43;;;;;;;24.50;15.10;;;9.30;99.90;;;;;;5034447;28;20476;-71
2023/04/08 10:54:13;;;;;;;28.08;15.40;;;9.40;99.90;;;;;;5052352;28;20051;-71
2023/04/08 10:56:50;;;;;;;26.33;15.45;;;9.40;99.90;;;;;;5018006;28;20115;-71
2023/04/08 10:59:30;;;;;;;27.05;16.52;;;9.50;99.90;;;;;;5034398;28;20048;-71
2023/04/08 11:01:57;;;;;;;24.27;15.32;;;9.60;99.90;;;;;;5051750;28;20551;-71
2023/04/08 11:04:23;;;;;;;27.13;15.38;;;9.60;99.90;;;;;;5033901;28;20040;-71
2023/04/08 11:06:49;;;;;;;26.38;16.40;;;9.60;99.90;;;;;;5051898;28;20041;-71
2023/04/08 11:09:16;;;;;;;28.73;16.48;;;9.70;99.90;;;;;;5052062;28;20068;-71
2023/04/08 11:11:43;;;;;;;29.83;16.20;;;9.60;99.90;;;;;;5051602;28;20041;-71
2023/04/08 11:14:09;;;;;;;34.40;20.30;;;9.80;99.90;;;;;;5051399;28;20520;-72
2023/04/08 11:16:37;;;;;;;33.45;20.50;;;10.00;99.90;;;;;;5050843;28;20080;-72
2023/04/08 11:19:04;;;;;;;39.20;21.10;;;10.00;99.90;;;;;;5034112;28;20055;-72
2023/04/08 11:21:31;;;;;;;36.72;21.92;;;10.10;99.90;;;;;;5051791;28;20148;-72
2023/04/08 11:23:58;;;;;;;32.00;20.85;;;10.10;99.90;;;;;;5051222;28;20045;-71
2023/04/08 11:26:24;;;;;;;32.65;20.33;;;10.10;99.90;;;;;;5050900;28;20049;-72
2023/04/08 11:28:51;;;;;;;35.20;21.83;;;10.10;99.90;;;;;;5051811;28;20039;-71
2023/04/08 11:31:17;;;;;;;33.67;21.48;;;10.10;99.90;;;;;;5033854;28;20075;-72
2023/04/08 11:33:53;;;;;;;32.45;20.33;;;10.10;99.90;;;;;;5033923;28;20087;-72
2023/04/08 11:36:20;;;;;;;36.10;22.33;;;10.10;99.90;;;;;;5051334;28;20052;-72
2023/04/08 11:38:46;;;;;;;29.23;18.90;;;10.10;99.90;;;;;;5034029;28;20434;-72
2023/04/08 11:41:12;;;;;;;30.00;18.63;;;10.00;99.90;;;;;;5034149;28;20052;-71
2023/04/08 11:43:39;;;;;;;30.27;20.30;;;10.10;99.90;;;;;;5033861;28;20451;-72
2023/04/08 11:46:11;;;;;;;32.40;21.00;;;10.10;99.90;;;;;;5051152;28;20045;-71
2023/04/08 11:48:38;;;;;;;37.03;20.27;;;10.10;99.90;;;;;;5051223;28;20443;-71
2023/04/08 11:51:07;;;;;;;31.50;20.17;;;10.00;99.90;;;;;;5033036;28;20033;-71
2023/04/08 11:53:35;;;;;;;31.25;20.80;;;10.10;99.90;;;;;;5050376;28;20082;-72
2023/04/08 11:56:21;;;;;;;35.72;19.70;;;10.10;99.90;;;;;;5033313;28;20041;-71
2023/04/08 11:58:47;;;;;;;30.23;19.23;;;10.00;99.90;;;;;;5049399;28;20045;-71
2023/04/08 12:01:13;;;;;;;32.63;22.20;;;10.00;99.90;;;;;;5033007;28;20041;-71
2023/04/08 12:03:51;;;;;;;30.20;18.15;;;9.90;99.90;;;;;;5033190;28;20139;-72
2023/04/08 12:06:17;;;;;;;31.30;19.60;;;10.00;99.90;;;;;;5050667;28;20098;-71
2023/04/08 12:08:43;;;;;;;32.50;19.13;;;10.00;99.90;;;;;;5033018;28;20168;-72
2023/04/08 12:11:10;;;;;;;30.65;20.15;;;10.00;99.90;;;;;;5048096;28;20033;-72
2023/04/08 12:13:35;;;;;;;29.67;20.20;;;10.10;99.90;;;;;;5050893;28;20045;-72
2023/04/08 12:16:01;;;;;;;29.95;20.60;;;10.10;99.90;;;;;;5050767;28;20060;-72
2023/04/08 12:18:27;;;;;;;29.63;18.02;;;10.20;99.90;;;;;;5050792;28;20091;-71
2023/04/08 12:20:53;;;;;;;30.35;18.73;;;10.20;99.90;;;;;;5051042;28;20397;-72
2023/04/08 12:23:19;;;;;;;29.98;19.70;;;10.10;99.90;;;;;;5051187;28;20083;-71
2023/04/08 12:25:44;;;;;;;30.40;19.00;;;10.20;99.90;;;;;;5033031;28;20076;-72
2023/04/08 12:28:10;;;;;;;36.20;20.92;;;10.10;99.90;;;;;;5051261;28;20116;-75
2023/04/08 12:30:36;;;;;;;36.45;20.52;;;10.00;99.90;;;;;;5033229;28;20033;-71
2023/04/08 12:33:01;;;;;;;30.90;20.35;;;9.90;99.90;;;;;;5050928;28;20041;-71
2023/04/08 12:35:27;;;;;;;33.53;21.85;;;10.00;99.90;;;;;;5033015;28;20045;-72
2023/04/08 12:37:53;;;;;;;32.00;21.13;;;10.10;99.90;;;;;;5052560;28;20566;-73